sensor_id;sensor_type;location;lat;lon;timestamp;temperature;humidity
8313;DHT22;4194;43.408;24.626;2024-03-23T00:53:18;4.50;99.90
8313;DHT22;4194;43.408;24.626;2024-03-23T00:55:44;4.50;99.90
8313;DHT22;4194;43.408;24.626;2024-03-23T00:58:09;4.10;99.90
8313;DHT22;4194;43.408;24.626;2024-03-23T01:00:35;4.50;99.90
8313;DHT22;4194;43.408;24.626;2024-03-23T01:03:01;4.40;99.90
8313;DHT22;4194;43.408;24.626;2024-03-23T01:05:27;4.10;99.90
8313;DHT22;4194;43.408;24.626;2024-03-23T01:07:53;4.80;99.90
8313;DHT22;4194;43.408;24.626;2024-03-23T01:10:18;4.50;99.90
8313;DHT22;4194;43.408;24.626;2024-03-23T01:12:44;4.30;99.90
8313;DHT22;4194;43.408;24.626;2024-03-23T01:15:10;4.30;99.90
8313;DHT22;4194;43.408;24.626;2024-03-23T01:17:35;4.30;99.90
8313;DHT22;4194;43.408;24.626;2024-03-23T01:20:01;4.20;99.90
8313;DHT22;4194;43.408;24.626;2024-03-23T01:22:28;4.20;99.90
8313;DHT22;4194;43.408;24.626;2024-03-23T01:24:53;3.90;99.90
8313;DHT22;4194;43.408;24.626;2024-03-23T01:27:19;4.00;99.90
8313;DHT22;4194;43.408;24.626;2024-03-23T01:29:45;4.00;99.90
8313;DHT22;4194;43.408;24.626;2024-03-23T01:32:10;4.00;99.90
8313;DHT22;4194;43.408;24.626;2024-03-23T01:34:36;4.00;99.90
8313;DHT22;4194;43.408;24.626;2024-03-23T01:37:02;3.90;99.90
8313;DHT22;4194;43.408;24.626;2024-03-23T01:39:27;3.70;99.90
8313;DHT22;4194;43.408;24.626;2024-03-23T01:41:53;4.00;99.90
8313;DHT22;4194;43.408;24.626;2024-03-23T01:44:19;4.20;99.90
8313;DHT22;4194;43.408;24.626;2024-03-23T01:46:45;3.90;99.90
8313;DHT22;4194;43.408;24.626;2024-03-23T01:49:10;3.90;99.90
8313;DHT22;4194;43.408;24.626;2024-03-23T01:51:37;4.10;99.90
8313;DHT22;4194;43.408;24.626;2024-03-23T01:54:03;4.10;99.90
8313;DHT22;4194;43.408;24.626;2024-03-23T01:56:33;4.10;99.90
8313;DHT22;4194;43.408;24.626;2024-03-23T01:59:05;3.80;99.90
8313;DHT22;4194;43.408;24.626;2024-03-23T02:01:32;4.40;99.90
8313;DHT22;4194;43.408;24.626;2024-03-23T02:03:58;4.00;99.90
8313;DHT22;4194;43.408;24.626;2024-03-23T02:06:27;4.00;99.90
8313;DHT22;4194;43.408;24.626;2024-03-23T02:08:56;4.00;99.90
8313;DHT22;4194;43.408;24.626;2024-03-23T02:11:22;3.80;99.90
8313;DHT22;4194;43.408;24.626;2024-03-23T02:13:48;4.00;99.90
8313;DHT22;4194;43.408;24.626;2024-03-23T02:16:13;4.00;99.90
8313;DHT22;4194;43.408;24.626;2024-03-23T02:18:39;3.90;99.90
8313;DHT22;4194;43.408;24.626;2024-03-23T02:21:05;4.00;99.90
8313;DHT22;4194;43.408;24.626;2024-03-23T02:23:31;3.50;99.90
8313;DHT22;4194;43.408;24.626;2024-03-23T02:25:57;3.60;99.90
8313;DHT22;4194;43.408;24.626;2024-03-23T02:28:22;3.50;99.90
8313;DHT22;4194;43.408;24.626;2024-03-23T02:30:51;3.40;99.90
8313;DHT22;4194;43.408;24.626;2024-03-23T02:33:17;3.60;99.90
8313;DHT22;4194;43.408;24.626;2024-03-23T02:35:47;3.40;99.90
8313;DHT22;4194;43.408;24.626;2024-03-23T02:38:12;3.30;99.90
8313;DHT22;4194;43.408;24.626;2024-03-23T02:40:38;3.40;99.90
8313;DHT22;4194;43.408;24.626;2024-03-23T02:43:04;3.30;99.90
8313;DHT22;4194;43.408;24.626;2024-03-23T02:45:30;3.30;99.90
8313;DHT22;4194;43.408;24.626;2024-03-23T02:47:56;3.20;99.90
8313;DHT22;4194;43.408;24.626;2024-03-23T02:50:22;3.30;99.90
8313;DHT22;4194;43.408;24.626;2024-03-23T02:52:48;3.30;99.90
8313;DHT22;4194;43.408;24.626;2024-03-23T02:55:14;3.20;99.90
8313;DHT22;4194;43.408;24.626;2024-03-23T02:57:40;3.20;99.90
8313;DHT22;4194;43.408;24.626;2024-03-23T03:00:07;3.40;99.90
8313;DHT22;4194;43.408;24.626;2024-03-23T03:02:33;3.00;99.90
8313;DHT22;4194;43.408;24.626;2024-03-23T03:04:59;3.50;99.90
8313;DHT22;4194;43.408;24.626;2024-03-23T03:07:25;3.30;99.90
8313;DHT22;4194;43.408;24.626;2024-03-23T03:09:51;3.30;99.90
8313;DHT22;4194;43.408;24.626;2024-03-23T03:12:16;3.30;99.90
8313;DHT22;4194;43.408;24.626;2024-03-23T03:14:42;3.40;99.90
8313;DHT22;4194;43.408;24.626;2024-03-23T03:17:08;3.50;99.90
8313;DHT22;4194;43.408;24.626;2024-03-23T03:19:34;3.70;99.90
8313;DHT22;4194;43.408;24.626;2024-03-23T03:22:00;3.30;99.90
8313;DHT22;4194;43.408;24.626;2024-03-23T03:24:25;3.50;99.90
8313;DHT22;4194;43.408;24.626;2024-03-23T03:26:51;3.30;99.90
8313;DHT22;4194;43.408;24.626;2024-03-23T03:29:17;3.30;99.90
8313;DHT22;4194;43.408;24.626;2024-03-23T03:31:43;3.50;99.90
8313;DHT22;4194;43.408;24.626;2024-03-23T03:34:09;3.40;99.90
8313;DHT22;4194;43.408;24.626;2024-03-23T03:36:34;3.20;99.90
8313;DHT22;4194;43.408;24.626;2024-03-23T03:39:00;3.30;99.90
8313;DHT22;4194;43.408;24.626;2024-03-23T03:41:28;3.20;99.90
8313;DHT22;4194;43.408;24.626;2024-03-23T03:43:53;3.20;99.90
8313;DHT22;4194;43.408;24.626;2024-03-23T03:46:20;3.20;99.90
8313;DHT22;4194;43.408;24.626;2024-03-23T03:48:46;3.20;99.90
8313;DHT22;4194;43.408;24.626;2024-03-23T03:51:13;3.20;99.90
8313;DHT22;4194;43.408;24.626;2024-03-23T03:53:39;3.10;99.90
8313;DHT22;4194;43.408;24.626;2024-03-23T03:56:05;3.20;99.90
8313;DHT22;4194;43.408;24.626;2024-03-23T03:58:31;3.10;99.90
8313;DHT22;4194;43.408;24.626;2024-03-23T04:00:56;3.50;99.90
8313;DHT22;4194;43.408;24.626;2024-03-23T04:03:22;3.20;99.90
8313;DHT22;4194;43.408;24.626;2024-03-23T04:05:54;3.30;99.90
8313;DHT22;4194;43.408;24.626;2024-03-23T04:08:20;3.20;99.90
8313;DHT22;4194;43.408;24.626;2024-03-23T04:10:46;3.40;99.90
8313;DHT22;4194;43.408;24.626;2024-03-23T04:13:12;3.30;99.90
8313;DHT22;4194;43.408;24.626;2024-03-23T04:15:38;3.30;99.90
8313;DHT22;4194;43.408;24.626;2024-03-23T04:18:05;3.70;99.90
8313;DHT22;4194;43.408;24.626;2024-03-23T04:20:30;3.40;99.90
8313;DHT22;4194;43.408;24.626;2024-03-23T04:22:58;3.50;99.90
8313;DHT22;4194;43.408;24.626;2024-03-23T04:25:23;3.40;99.90
8313;DHT22;4194;43.408;24.626;2024-03-23T04:27:49;3.40;99.90
8313;DHT22;4194;43.408;24.626;2024-03-23T04:30:15;3.40;99.90
8313;DHT22;4194;43.408;24.626;2024-03-23T04:32:41;3.50;99.90
8313;DHT22;4194;43.408;24.626;2024-03-23T04:35:07;3.50;99.90
8313;DHT22;4194;43.408;24.626;2024-03-23T04:37:37;3.50;99.90
8313;DHT22;4194;43.408;24.626;2024-03-23T04:40:03;3.50;99.90
8313;DHT22;4194;43.408;24.626;2024-03-23T04:42:30;3.50;99.90
8313;DHT22;4194;43.408;24.626;2024-03-23T04:44:56;3.40;99.90
8313;DHT22;4194;43.408;24.626;2024-03-23T04:47:22;3.50;99.90
8313;DHT22;4194;43.408;24.626;2024-03-23T04:49:48;3.60;99.90
8313;DHT22;4194;43.408;24.626;2024-03-23T04:52:14;3.60;99.90
8313;DHT22;4194;43.408;24.626;2024-03-23T04:54:39;3.80;99.90
8313;DHT22;4194;43.408;24.626;2024-03-23T04:57:08;3.60;99.90
8313;DHT22;4194;43.408;24.626;2024-03-23T04:59:34;3.80;99.90
8313;DHT22;4194;43.408;24.626;2024-03-23T05:02:00;4.00;99.90
8313;DHT22;4194;43.408;24.626;2024-03-23T05:04:26;3.80;99.90
8313;DHT22;4194;43.408;24.626;2024-03-23T05:06:52;4.20;99.90
8313;DHT22;4194;43.408;24.626;2024-03-23T05:09:17;3.90;99.90
8313;DHT22;4194;43.408;24.626;2024-03-23T05:11:43;4.00;99.90
8313;DHT22;4194;43.408;24.626;2024-03-23T05:14:09;3.70;99.90
8313;DHT22;4194;43.408;24.626;2024-03-23T05:16:34;4.10;99.90
8313;DHT22;4194;43.408;24.626;2024-03-23T05:19:00;4.20;99.90
8313;DHT22;4194;43.408;24.626;2024-03-23T05:21:26;4.30;99.90
8313;DHT22;4194;43.408;24.626;2024-03-23T05:23:54;4.20;99.90
8313;DHT22;4194;43.408;24.626;2024-03-23T05:26:21;4.20;99.90
8313;DHT22;4194;43.408;24.626;2024-03-23T05:28:47;4.90;99.90
8313;DHT22;4194;43.408;24.626;2024-03-23T05:31:23;4.80;99.90
8313;DHT22;4194;43.408;24.626;2024-03-23T05:33:49;4.90;99.90
8313;DHT22;4194;43.408;24.626;2024-03-23T05:36:14;5.10;99.90
8313;DHT22;4194;43.408;24.626;2024-03-23T05:38:40;5.10;99.90
8313;DHT22;4194;43.408;24.626;2024-03-23T05:41:05;5.10;99.90
8313;DHT22;4194;43.408;24.626;2024-03-23T05:43:31;5.10;99.90
8313;DHT22;4194;43.408;24.626;2024-03-23T05:45:58;5.10;99.90
8313;DHT22;4194;43.408;24.626;2024-03-23T05:48:28;5.20;99.90
8313;DHT22;4194;43.408;24.626;2024-03-23T05:50:55;5.30;99.90
8313;DHT22;4194;43.408;24.626;2024-03-23T05:53:21;5.60;99.90
8313;DHT22;4194;43.408;24.626;2024-03-23T05:55:47;5.70;99.90
8313;DHT22;4194;43.408;24.626;2024-03-23T05:58:16;5.90;99.90
8313;DHT22;4194;43.408;24.626;2024-03-23T06:00:42;6.10;99.90
8313;DHT22;4194;43.408;24.626;2024-03-23T06:03:09;6.20;99.90
8313;DHT22;4194;43.408;24.626;2024-03-23T06:05:35;6.50;99.90
8313;DHT22;4194;43.408;24.626;2024-03-23T06:08:01;6.70;99.90
8313;DHT22;4194;43.408;24.626;2024-03-23T06:10:28;6.90;99.90
8313;DHT22;4194;43.408;24.626;2024-03-23T06:12:53;7.00;99.90
8313;DHT22;4194;43.408;24.626;2024-03-23T06:15:19;7.20;99.90
8313;DHT22;4194;43.408;24.626;2024-03-23T06:17:45;7.40;99.90
8313;DHT22;4194;43.408;24.626;2024-03-23T06:20:12;7.40;99.90
8313;DHT22;4194;43.408;24.626;2024-03-23T06:22:38;7.70;98.20
8313;DHT22;4194;43.408;24.626;2024-03-23T06:25:04;7.90;98.30
8313;DHT22;4194;43.408;24.626;2024-03-23T06:27:30;8.20;96.40
8313;DHT22;4194;43.408;24.626;2024-03-23T06:29:57;8.40;95.20
8313;DHT22;4194;43.408;24.626;2024-03-23T06:32:23;8.30;94.10
8313;DHT22;4194;43.408;24.626;2024-03-23T06:34:49;8.70;93.50
8313;DHT22;4194;43.408;24.626;2024-03-23T06:37:14;8.80;93.10
8313;DHT22;4194;43.408;24.626;2024-03-23T06:39:40;9.10;92.70
8313;DHT22;4194;43.408;24.626;2024-03-23T06:42:06;9.20;92.10
8313;DHT22;4194;43.408;24.626;2024-03-23T06:44:33;9.30;91.30
8313;DHT22;4194;43.408;24.626;2024-03-23T06:46:59;9.60;90.80
8313;DHT22;4194;43.408;24.626;2024-03-23T06:49:25;9.70;90.10
8313;DHT22;4194;43.408;24.626;2024-03-23T06:51:50;9.90;89.50
8313;DHT22;4194;43.408;24.626;2024-03-23T06:54:19;10.00;87.40
8313;DHT22;4194;43.408;24.626;2024-03-23T06:56:46;10.20;86.20
8313;DHT22;4194;43.408;24.626;2024-03-23T06:59:11;10.10;84.60
8313;DHT22;4194;43.408;24.626;2024-03-23T07:01:37;10.30;84.00
8313;DHT22;4194;43.408;24.626;2024-03-23T07:04:04;10.60;83.20
8313;DHT22;4194;43.408;24.626;2024-03-23T07:06:32;10.70;82.70
8313;DHT22;4194;43.408;24.626;2024-03-23T07:08:58;10.90;81.90
8313;DHT22;4194;43.408;24.626;2024-03-23T07:11:24;10.90;82.00
8313;DHT22;4194;43.408;24.626;2024-03-23T07:13:51;11.00;81.80
8313;DHT22;4194;43.408;24.626;2024-03-23T07:16:18;11.10;81.50
8313;DHT22;4194;43.408;24.626;2024-03-23T07:18:43;11.40;81.40
8313;DHT22;4194;43.408;24.626;2024-03-23T07:21:09;11.40;81.50
8313;DHT22;4194;43.408;24.626;2024-03-23T07:23:35;11.30;80.70
8313;DHT22;4194;43.408;24.626;2024-03-23T07:26:03;11.10;80.40
8313;DHT22;4194;43.408;24.626;2024-03-23T07:28:33;11.00;80.10
8313;DHT22;4194;43.408;24.626;2024-03-23T07:31:06;11.10;80.50
8313;DHT22;4194;43.408;24.626;2024-03-23T07:33:32;11.20;80.30
8313;DHT22;4194;43.408;24.626;2024-03-23T07:35:59;11.30;79.80
8313;DHT22;4194;43.408;24.626;2024-03-23T07:38:26;11.30;78.80
8313;DHT22;4194;43.408;24.626;2024-03-23T07:40:52;11.70;78.70
8313;DHT22;4194;43.408;24.626;2024-03-23T07:43:22;11.80;77.90
8313;DHT22;4194;43.408;24.626;2024-03-23T07:45:54;12.10;77.30
8313;DHT22;4194;43.408;24.626;2024-03-23T07:48:21;12.30;75.40
8313;DHT22;4194;43.408;24.626;2024-03-23T07:51:04;12.40;75.00
8313;DHT22;4194;43.408;24.626;2024-03-23T07:53:31;12.70;74.80
8313;DHT22;4194;43.408;24.626;2024-03-23T07:55:59;12.90;73.90
8313;DHT22;4194;43.408;24.626;2024-03-23T07:58:25;13.10;72.80
8313;DHT22;4194;43.408;24.626;2024-03-23T08:00:52;13.30;71.80
8313;DHT22;4194;43.408;24.626;2024-03-23T08:03:18;13.10;70.20
8313;DHT22;4194;43.408;24.626;2024-03-23T08:05:44;13.30;69.80
8313;DHT22;4194;43.408;24.626;2024-03-23T08:08:10;13.30;70.70
8313;DHT22;4194;43.408;24.626;2024-03-23T08:10:49;13.40;69.90
8313;DHT22;4194;43.408;24.626;2024-03-23T08:13:14;13.90;70.30
8313;DHT22;4194;43.408;24.626;2024-03-23T08:15:40;13.80;69.40
8313;DHT22;4194;43.408;24.626;2024-03-23T08:18:06;13.90;67.20
8313;DHT22;4194;43.408;24.626;2024-03-23T08:20:32;13.90;67.40
8313;DHT22;4194;43.408;24.626;2024-03-23T08:22:57;14.00;68.00
8313;DHT22;4194;43.408;24.626;2024-03-23T08:25:23;14.00;68.50
8313;DHT22;4194;43.408;24.626;2024-03-23T08:27:49;11.90;66.40
8313;DHT22;4194;43.408;24.626;2024-03-23T08:30:14;14.10;68.60
8313;DHT22;4194;43.408;24.626;2024-03-23T08:32:41;13.90;67.10
8313;DHT22;4194;43.408;24.626;2024-03-23T08:35:08;14.30;66.50
8313;DHT22;4194;43.408;24.626;2024-03-23T08:37:34;14.20;65.20
8313;DHT22;4194;43.408;24.626;2024-03-23T08:39:59;14.10;65.70
8313;DHT22;4194;43.408;24.626;2024-03-23T08:42:25;14.40;66.30
8313;DHT22;4194;43.408;24.626;2024-03-23T08:44:51;14.60;65.40
8313;DHT22;4194;43.408;24.626;2024-03-23T08:47:16;14.90;65.00
8313;DHT22;4194;43.408;24.626;2024-03-23T08:49:44;14.90;64.50
8313;DHT22;4194;43.408;24.626;2024-03-23T08:52:09;15.20;64.30
8313;DHT22;4194;43.408;24.626;2024-03-23T08:54:35;15.60;63.40
8313;DHT22;4194;43.408;24.626;2024-03-23T08:57:01;15.50;62.70
8313;DHT22;4194;43.408;24.626;2024-03-23T08:59:26;15.80;62.30
8313;DHT22;4194;43.408;24.626;2024-03-23T09:01:52;15.80;62.20
8313;DHT22;4194;43.408;24.626;2024-03-23T09:04:18;16.00;59.50
8313;DHT22;4194;43.408;24.626;2024-03-23T09:06:44;16.10;59.60
8313;DHT22;4194;43.408;24.626;2024-03-23T09:09:10;16.20;58.20
8313;DHT22;4194;43.408;24.626;2024-03-23T09:11:36;16.30;56.00
8313;DHT22;4194;43.408;24.626;2024-03-23T09:14:03;16.50;55.20
8313;DHT22;4194;43.408;24.626;2024-03-23T09:16:28;16.50;54.60
8313;DHT22;4194;43.408;24.626;2024-03-23T09:18:54;16.80;55.30
8313;DHT22;4194;43.408;24.626;2024-03-23T09:21:20;16.70;53.50
8313;DHT22;4194;43.408;24.626;2024-03-23T09:23:46;16.90;53.00
8313;DHT22;4194;43.408;24.626;2024-03-23T09:26:12;17.30;53.90
8313;DHT22;4194;43.408;24.626;2024-03-23T09:28:38;17.50;53.60
8313;DHT22;4194;43.408;24.626;2024-03-23T09:31:07;17.60;53.10
8313;DHT22;4194;43.408;24.626;2024-03-23T09:33:34;17.90;52.30
8313;DHT22;4194;43.408;24.626;2024-03-23T09:36:04;18.00;50.00
8313;DHT22;4194;43.408;24.626;2024-03-23T09:38:30;18.00;48.20
8313;DHT22;4194;43.408;24.626;2024-03-23T09:40:57;18.00;45.90
8313;DHT22;4194;43.408;24.626;2024-03-23T09:43:23;17.90;45.70
8313;DHT22;4194;43.408;24.626;2024-03-23T09:45:49;17.70;45.20
8313;DHT22;4194;43.408;24.626;2024-03-23T09:48:15;17.80;45.50
8313;DHT22;4194;43.408;24.626;2024-03-23T09:50:42;18.00;45.30
8313;DHT22;4194;43.408;24.626;2024-03-23T09:53:10;18.10;45.70
8313;DHT22;4194;43.408;24.626;2024-03-23T09:55:37;18.20;46.10
8313;DHT22;4194;43.408;24.626;2024-03-23T09:58:04;18.50;45.70
8313;DHT22;4194;43.408;24.626;2024-03-23T10:00:36;18.30;45.10
8313;DHT22;4194;43.408;24.626;2024-03-23T10:03:02;18.60;45.30
8313;DHT22;4194;43.408;24.626;2024-03-23T10:05:29;18.40;45.20
8313;DHT22;4194;43.408;24.626;2024-03-23T10:07:56;18.90;45.00
8313;DHT22;4194;43.408;24.626;2024-03-23T10:10:25;19.20;44.80
8313;DHT22;4194;43.408;24.626;2024-03-23T10:12:51;19.60;44.80
8313;DHT22;4194;43.408;24.626;2024-03-23T10:15:25;20.10;43.80
8313;DHT22;4194;43.408;24.626;2024-03-23T10:17:51;20.30;42.50
8313;DHT22;4194;43.408;24.626;2024-03-23T10:20:21;20.70;43.00
8313;DHT22;4194;43.408;24.626;2024-03-23T10:22:50;20.60;42.30
8313;DHT22;4194;43.408;24.626;2024-03-23T10:25:23;20.70;42.10
8313;DHT22;4194;43.408;24.626;2024-03-23T10:28:01;20.70;41.50
8313;DHT22;4194;43.408;24.626;2024-03-23T10:30:27;20.80;41.30
8313;DHT22;4194;43.408;24.626;2024-03-23T10:33:13;21.20;41.80
8313;DHT22;4194;43.408;24.626;2024-03-23T10:35:40;21.60;41.60
8313;DHT22;4194;43.408;24.626;2024-03-23T10:38:07;21.30;42.80
8313;DHT22;4194;43.408;24.626;2024-03-23T10:40:36;21.70;41.10
8313;DHT22;4194;43.408;24.626;2024-03-23T10:43:06;22.20;40.50
8313;DHT22;4194;43.408;24.626;2024-03-23T10:45:33;22.90;39.90
8313;DHT22;4194;43.408;24.626;2024-03-23T10:47:59;22.80;38.60
8313;DHT22;4194;43.408;24.626;2024-03-23T10:50:25;22.90;39.20
8313;DHT22;4194;43.408;24.626;2024-03-23T10:52:53;23.10;38.70
8313;DHT22;4194;43.408;24.626;2024-03-23T10:55:19;23.70;38.30
8313;DHT22;4194;43.408;24.626;2024-03-23T10:57:53;24.00;38.00
8313;DHT22;4194;43.408;24.626;2024-03-23T11:00:19;24.70;38.20
8313;DHT22;4194;43.408;24.626;2024-03-23T11:02:48;25.10;38.60
8313;DHT22;4194;43.408;24.626;2024-03-23T11:07:52;26.30;37.30
8313;DHT22;4194;43.408;24.626;2024-03-23T11:10:31;25.20;36.30
8313;DHT22;4194;43.408;24.626;2024-03-23T11:13:43;25.20;35.50
8313;DHT22;4194;43.408;24.626;2024-03-23T11:15:44;25.60;35.10
8313;DHT22;4194;43.408;24.626;2024-03-23T11:18:10;25.80;35.60
8313;DHT22;4194;43.408;24.626;2024-03-23T11:20:37;25.90;34.50
8313;DHT22;4194;43.408;24.626;2024-03-23T11:23:04;26.00;34.10
8313;DHT22;4194;43.408;24.626;2024-03-23T11:25:30;26.40;34.30
8313;DHT22;4194;43.408;24.626;2024-03-23T11:28:10;26.20;33.40
8313;DHT22;4194;43.408;24.626;2024-03-23T11:30:36;26.50;33.40
8313;DHT22;4194;43.408;24.626;2024-03-23T11:33:04;27.00;34.30
8313;DHT22;4194;43.408;24.626;2024-03-23T11:35:33;26.80;34.20
8313;DHT22;4194;43.408;24.626;2024-03-23T11:40:37;26.60;33.90
8313;DHT22;4194;43.408;24.626;2024-03-23T11:43:08;26.50;33.90
8313;DHT22;4194;43.408;24.626;2024-03-23T11:45:38;26.90;34.90
8313;DHT22;4194;43.408;24.626;2024-03-23T11:48:16;27.40;33.80
8313;DHT22;4194;43.408;24.626;2024-03-23T11:50:46;27.60;33.00
8313;DHT22;4194;43.408;24.626;2024-03-23T11:53:19;28.30;32.90
8313;DHT22;4194;43.408;24.626;2024-03-23T11:58:21;28.50;31.30
8313;DHT22;4194;43.408;24.626;2024-03-23T12:00:57;28.70;31.00
8313;DHT22;4194;43.408;24.626;2024-03-23T12:03:24;28.90;30.50
8313;DHT22;4194;43.408;24.626;2024-03-23T12:05:54;29.50;31.20
8313;DHT22;4194;43.408;24.626;2024-03-23T12:08:21;29.80;30.40
8313;DHT22;4194;43.408;24.626;2024-03-23T12:10:52;30.90;29.40
8313;DHT22;4194;43.408;24.626;2024-03-23T12:13:20;30.90;28.70
8313;DHT22;4194;43.408;24.626;2024-03-23T12:15:47;31.50;29.20
8313;DHT22;4194;43.408;24.626;2024-03-23T12:18:13;31.50;28.40
8313;DHT22;4194;43.408;24.626;2024-03-23T12:20:39;31.60;27.70
8313;DHT22;4194;43.408;24.626;2024-03-23T12:23:06;31.90;27.20
8313;DHT22;4194;43.408;24.626;2024-03-23T12:25:32;32.70;28.00
8313;DHT22;4194;43.408;24.626;2024-03-23T12:27:59;34.10;26.80
8313;DHT22;4194;43.408;24.626;2024-03-23T12:30:25;34.90;26.40
8313;DHT22;4194;43.408;24.626;2024-03-23T12:32:51;36.40;25.90
8313;DHT22;4194;43.408;24.626;2024-03-23T12:35:16;35.80;25.90
8313;DHT22;4194;43.408;24.626;2024-03-23T12:37:43;37.10;25.60
8313;DHT22;4194;43.408;24.626;2024-03-23T12:40:09;36.50;25.50
8313;DHT22;4194;43.408;24.626;2024-03-23T12:42:35;36.10;25.40
8313;DHT22;4194;43.408;24.626;2024-03-23T12:45:01;36.60;25.40
8313;DHT22;4194;43.408;24.626;2024-03-23T12:47:26;37.70;24.80
8313;DHT22;4194;43.408;24.626;2024-03-23T12:49:52;38.70;25.50
8313;DHT22;4194;43.408;24.626;2024-03-23T12:52:18;39.60;25.00
8313;DHT22;4194;43.408;24.626;2024-03-23T12:54:47;40.20;23.70
8313;DHT22;4194;43.408;24.626;2024-03-23T12:57:12;39.90;23.70
8313;DHT22;4194;43.408;24.626;2024-03-23T12:59:38;39.70;23.70
8313;DHT22;4194;43.408;24.626;2024-03-23T13:02:03;39.10;23.50
8313;DHT22;4194;43.408;24.626;2024-03-23T13:04:29;39.10;23.70
8313;DHT22;4194;43.408;24.626;2024-03-23T13:06:55;38.20;24.10
8313;DHT22;4194;43.408;24.626;2024-03-23T13:09:20;37.40;24.00
8313;DHT22;4194;43.408;24.626;2024-03-23T13:11:46;38.50;24.20
8313;DHT22;4194;43.408;24.626;2024-03-23T13:14:12;40.10;23.80
8313;DHT22;4194;43.408;24.626;2024-03-23T13:16:40;38.60;23.00
8313;DHT22;4194;43.408;24.626;2024-03-23T13:19:05;39.30;23.30
8313;DHT22;4194;43.408;24.626;2024-03-23T13:21:31;40.20;23.00
8313;DHT22;4194;43.408;24.626;2024-03-23T13:23:57;40.20;23.00
8313;DHT22;4194;43.408;24.626;2024-03-23T13:26:22;40.20;22.80
8313;DHT22;4194;43.408;24.626;2024-03-23T13:28:48;41.20;23.00
8313;DHT22;4194;43.408;24.626;2024-03-23T13:31:14;42.20;23.00
8313;DHT22;4194;43.408;24.626;2024-03-23T13:33:39;42.50;22.30
8313;DHT22;4194;43.408;24.626;2024-03-23T13:36:07;43.10;22.50
8313;DHT22;4194;43.408;24.626;2024-03-23T13:38:33;43.10;22.00
8313;DHT22;4194;43.408;24.626;2024-03-23T13:41:00;43.30;22.20
8313;DHT22;4194;43.408;24.626;2024-03-23T13:43:26;44.10;22.40
8313;DHT22;4194;43.408;24.626;2024-03-23T13:45:59;42.70;21.90
8313;DHT22;4194;43.408;24.626;2024-03-23T13:48:26;41.70;22.70
8313;DHT22;4194;43.408;24.626;2024-03-23T13:51:03;41.90;22.60
8313;DHT22;4194;43.408;24.626;2024-03-23T13:53:30;40.90;23.10
8313;DHT22;4194;43.408;24.626;2024-03-23T13:55:56;42.60;23.10
8313;DHT22;4194;43.408;24.626;2024-03-23T13:58:22;42.80;22.50
8313;DHT22;4194;43.408;24.626;2024-03-23T14:00:51;43.40;22.50
8313;DHT22;4194;43.408;24.626;2024-03-23T14:03:17;44.60;23.00
8313;DHT22;4194;43.408;24.626;2024-03-23T14:05:44;45.00;21.70
8313;DHT22;4194;43.408;24.626;2024-03-23T14:08:10;44.30;21.50
8313;DHT22;4194;43.408;24.626;2024-03-23T14:10:40;42.70;21.40
8313;DHT22;4194;43.408;24.626;2024-03-23T14:13:05;41.80;22.10
8313;DHT22;4194;43.408;24.626;2024-03-23T14:15:31;41.10;22.60
8313;DHT22;4194;43.408;24.626;2024-03-23T14:17:58;41.40;23.10
8313;DHT22;4194;43.408;24.626;2024-03-23T14:20:24;41.70;22.30
8313;DHT22;4194;43.408;24.626;2024-03-23T14:22:51;43.10;22.40
8313;DHT22;4194;43.408;24.626;2024-03-23T14:25:17;43.70;22.00
8313;DHT22;4194;43.408;24.626;2024-03-23T14:27:46;44.40;21.70
8313;DHT22;4194;43.408;24.626;2024-03-23T14:30:12;43.90;21.90
8313;DHT22;4194;43.408;24.626;2024-03-23T14:32:39;44.10;21.30
8313;DHT22;4194;43.408;24.626;2024-03-23T14:35:05;44.90;21.80
8313;DHT22;4194;43.408;24.626;2024-03-23T14:37:32;44.30;21.70
8313;DHT22;4194;43.408;24.626;2024-03-23T14:39:58;44.70;21.80
8313;DHT22;4194;43.408;24.626;2024-03-23T14:42:24;44.70;21.40
8313;DHT22;4194;43.408;24.626;2024-03-23T14:44:51;45.60;21.70
8313;DHT22;4194;43.408;24.626;2024-03-23T14:47:17;46.00;21.50
8313;DHT22;4194;43.408;24.626;2024-03-23T14:49:44;45.00;21.20
8313;DHT22;4194;43.408;24.626;2024-03-23T14:52:19;44.40;21.60
8313;DHT22;4194;43.408;24.626;2024-03-23T14:54:45;43.80;21.70
8313;DHT22;4194;43.408;24.626;2024-03-23T14:57:11;42.70;21.80
8313;DHT22;4194;43.408;24.626;2024-03-23T14:59:37;43.00;22.30
8313;DHT22;4194;43.408;24.626;2024-03-23T15:02:04;41.60;21.90
8313;DHT22;4194;43.408;24.626;2024-03-23T15:04:30;42.30;22.50
8313;DHT22;4194;43.408;24.626;2024-03-23T15:06:55;42.50;21.60
8313;DHT22;4194;43.408;24.626;2024-03-23T15:09:21;43.30;22.60
8313;DHT22;4194;43.408;24.626;2024-03-23T15:11:46;43.60;22.20
8313;DHT22;4194;43.408;24.626;2024-03-23T15:14:12;42.90;21.50
8313;DHT22;4194;43.408;24.626;2024-03-23T15:16:38;43.30;21.70
8313;DHT22;4194;43.408;24.626;2024-03-23T15:19:03;43.70;21.30
8313;DHT22;4194;43.408;24.626;2024-03-23T15:21:32;43.70;21.20
8313;DHT22;4194;43.408;24.626;2024-03-23T15:23:58;43.40;21.20
8313;DHT22;4194;43.408;24.626;2024-03-23T15:26:23;42.40;22.80
8313;DHT22;4194;43.408;24.626;2024-03-23T15:28:49;40.60;23.10
8313;DHT22;4194;43.408;24.626;2024-03-23T15:31:25;37.20;23.80
8313;DHT22;4194;43.408;24.626;2024-03-23T15:33:51;34.20;25.10
8313;DHT22;4194;43.408;24.626;2024-03-23T15:36:17;30.60;26.70
8313;DHT22;4194;43.408;24.626;2024-03-23T15:38:43;28.00;28.60
8313;DHT22;4194;43.408;24.626;2024-03-23T15:41:09;25.90;30.30
8313;DHT22;4194;43.408;24.626;2024-03-23T15:43:35;25.00;31.90
8313;DHT22;4194;43.408;24.626;2024-03-23T15:46:02;24.10;33.80
8313;DHT22;4194;43.408;24.626;2024-03-23T15:48:29;23.30;35.50
8313;DHT22;4194;43.408;24.626;2024-03-23T15:51:00;22.60;35.60
8313;DHT22;4194;43.408;24.626;2024-03-23T15:53:26;22.00;36.40
8313;DHT22;4194;43.408;24.626;2024-03-23T15:56:02;21.60;35.90
8313;DHT22;4194;43.408;24.626;2024-03-23T15:58:29;21.10;38.60
8313;DHT22;4194;43.408;24.626;2024-03-23T16:00:56;20.70;39.50
8313;DHT22;4194;43.408;24.626;2024-03-23T16:03:22;20.40;39.70
8313;DHT22;4194;43.408;24.626;2024-03-23T16:05:52;20.00;42.00
8313;DHT22;4194;43.408;24.626;2024-03-23T16:08:17;19.90;40.40
8313;DHT22;4194;43.408;24.626;2024-03-23T16:10:43;19.50;43.00
8313;DHT22;4194;43.408;24.626;2024-03-23T16:13:09;19.30;44.00
8313;DHT22;4194;43.408;24.626;2024-03-23T16:15:34;19.10;45.60
8313;DHT22;4194;43.408;24.626;2024-03-23T16:18:00;18.90;45.00
8313;DHT22;4194;43.408;24.626;2024-03-23T16:20:26;18.60;45.70
8313;DHT22;4194;43.408;24.626;2024-03-23T16:22:51;18.50;45.70
8313;DHT22;4194;43.408;24.626;2024-03-23T16:25:17;18.30;48.20
8313;DHT22;4194;43.408;24.626;2024-03-23T16:27:43;17.90;49.00
8313;DHT22;4194;43.408;24.626;2024-03-23T16:30:09;18.00;50.10
8313;DHT22;4194;43.408;24.626;2024-03-23T16:32:35;17.60;49.80
8313;DHT22;4194;43.408;24.626;2024-03-23T16:35:03;17.40;49.30
8313;DHT22;4194;43.408;24.626;2024-03-23T16:37:29;17.10;49.20
8313;DHT22;4194;43.408;24.626;2024-03-23T16:39:55;17.10;48.00
8313;DHT22;4194;43.408;24.626;2024-03-23T16:42:20;16.80;49.90
8313;DHT22;4194;43.408;24.626;2024-03-23T16:44:47;16.60;51.10
8313;DHT22;4194;43.408;24.626;2024-03-23T16:47:12;16.50;52.30
8313;DHT22;4194;43.408;24.626;2024-03-23T16:49:38;16.20;52.50